createdAt,value
2022-12-02T00:00:51.334Z,34.40
2022-12-02T00:03:21.447Z,34.53
2022-12-02T00:05:51.775Z,35.03
2022-12-02T00:08:22.440Z,35.33
2022-12-02T00:10:52.559Z,35.13
2022-12-02T00:13:24.253Z,35.93
2022-12-02T00:15:56.572Z,34.40
2022-12-02T00:18:24.519Z,33.50
2022-12-02T00:20:52.602Z,34.23
2022-12-02T00:23:20.672Z,33.03
2022-12-02T00:25:50.322Z,33.73
2022-12-02T00:28:18.706Z,32.57
2022-12-02T00:30:47.908Z,31.90
2022-12-02T00:33:18.167Z,32.67
2022-12-02T00:35:46.086Z,30.90
2022-12-02T00:38:14.004Z,32.80
2022-12-02T00:40:41.860Z,34.07
2022-12-02T00:43:27.403Z,31.90
2022-12-02T00:46:19.312Z,32.33
2022-12-02T00:48:47.260Z,33.60
2022-12-02T00:51:15.102Z,35.00
2022-12-02T00:53:42.988Z,34.43
2022-12-02T00:56:10.876Z,32.83
2022-12-02T00:58:38.761Z,33.97
2022-12-02T01:01:08.137Z,33.60
2022-12-02T01:03:41.224Z,32.30
2022-12-02T01:06:12.486Z,33.30
2022-12-02T01:08:40.365Z,32.87
2022-12-02T01:11:08.405Z,33.80
2022-12-02T01:13:36.536Z,32.50
2022-12-02T01:16:06.111Z,32.67
2022-12-02T01:18:35.875Z,32.10
2022-12-02T01:21:04.057Z,33.10
2022-12-02T01:23:31.931Z,34.77
2022-12-02T01:25:59.796Z,33.77
2022-12-02T01:28:27.702Z,32.90
2022-12-02T01:30:55.567Z,34.27
2022-12-02T01:33:24.890Z,32.20
2022-12-02T01:35:54.102Z,34.47
2022-12-02T01:38:21.990Z,33.67
2022-12-02T01:40:49.979Z,33.17
2022-12-02T01:43:18.046Z,33.77
2022-12-02T01:45:46.227Z,33.10
2022-12-02T01:48:14.336Z,34.43
2022-12-02T01:50:43.485Z,32.70
2022-12-02T01:53:12.922Z,33.43
2022-12-02T01:55:40.842Z,32.03
2022-12-02T01:58:12.767Z,34.30
2022-12-02T02:00:41.264Z,32.13
2022-12-02T02:03:09.273Z,32.97
2022-12-02T02:05:38.531Z,33.00
2022-12-02T02:08:08.955Z,33.00
2022-12-02T02:10:40.110Z,31.47
2022-12-02T02:13:10.122Z,29.57
2022-12-02T02:15:40.147Z,30.73
2022-12-02T02:18:09.030Z,31.00
2022-12-02T02:20:41.083Z,29.90
2022-12-02T02:23:32.009Z,30.33
2022-12-02T02:26:00.971Z,30.80
2022-12-02T02:28:35.863Z,30.97
2022-12-02T02:31:05.456Z,30.83
2022-12-02T02:33:44.245Z,31.73
2022-12-02T02:36:12.737Z,31.83
2022-12-02T02:38:41.961Z,31.23
2022-12-02T02:41:10.445Z,29.03
2022-12-02T02:43:39.606Z,31.17
2022-12-02T02:46:09.235Z,31.90
2022-12-02T02:48:41.057Z,33.20
2022-12-02T02:51:10.336Z,31.03
2022-12-02T02:53:40.822Z,30.60
2022-12-02T02:56:11.256Z,31.00
2022-12-02T02:58:40.469Z,31.13
2022-12-02T03:01:13.544Z,31.57
2022-12-02T03:03:47.778Z,32.67
2022-12-02T03:06:16.814Z,30.57
2022-12-02T03:08:49.295Z,31.27
2022-12-02T03:11:18.673Z,30.30
2022-12-02T03:13:48.937Z,30.40
2022-12-02T03:16:19.409Z,27.87
2022-12-02T03:18:48.495Z,31.10
2022-12-02T03:21:17.433Z,28.33
2022-12-02T03:23:47.871Z,29.00
2022-12-02T03:26:16.832Z,28.30
2022-12-02T03:28:45.356Z,30.00
2022-12-02T03:31:14.607Z,27.53
2022-12-02T03:33:43.173Z,27.80
2022-12-02T03:36:11.771Z,28.00
2022-12-02T03:38:40.057Z,26.70
2022-12-02T03:41:09.953Z,26.67
2022-12-02T03:43:37.829Z,26.77
2022-12-02T03:46:07.511Z,26.93
2022-12-02T03:48:36.994Z,26.00
2022-12-02T03:51:05.189Z,26.20
2022-12-02T03:53:33.951Z,25.70
2022-12-02T03:56:04.228Z,25.90
2022-12-02T03:58:38.562Z,25.97
2022-12-02T04:01:07.321Z,27.03
2022-12-02T04:03:35.275Z,25.67
2022-12-02T04:06:03.126Z,26.47
2022-12-02T04:08:31.029Z,26.73
2022-12-02T04:10:59.081Z,26.97
2022-12-02T04:13:27.136Z,25.80
2022-12-02T04:15:57.011Z,27.40
2022-12-02T04:18:24.924Z,26.57
2022-12-02T04:20:52.883Z,27.33
2022-12-02T04:23:20.726Z,27.27
2022-12-02T04:25:48.570Z,26.37
2022-12-02T04:28:16.481Z,27.13
2022-12-02T04:30:44.594Z,26.63
2022-12-02T04:33:13.818Z,27.33
2022-12-02T04:35:41.718Z,26.40
2022-12-02T04:38:12.175Z,27.47
2022-12-02T04:40:40.650Z,26.33
2022-12-02T04:43:08.761Z,27.40
2022-12-02T04:45:36.773Z,26.63
2022-12-02T04:48:04.775Z,29.03
2022-12-02T04:50:34.018Z,27.10
2022-12-02T04:53:01.940Z,28.67
2022-12-02T04:55:30.129Z,26.77
2022-12-02T04:57:58.051Z,26.83
2022-12-02T05:00:25.926Z,26.53
2022-12-02T05:02:53.781Z,25.50
2022-12-02T05:05:21.697Z,23.63
2022-12-02T05:07:50.920Z,23.77
2022-12-02T05:10:18.974Z,24.00
2022-12-02T05:12:46.848Z,23.30
2022-12-02T05:15:15.181Z,23.37
2022-12-02T05:17:43.034Z,23.00
2022-12-02T05:20:12.389Z,24.47
2022-12-02T05:22:40.261Z,24.60
2022-12-02T05:25:10.128Z,22.73
2022-12-02T05:27:38.161Z,24.03
2022-12-02T05:30:07.417Z,24.07
2022-12-02T05:32:35.303Z,24.17
2022-12-02T05:35:03.350Z,23.17
2022-12-02T05:37:31.298Z,24.33
2022-12-02T05:40:00.151Z,23.33
2022-12-02T05:42:29.987Z,23.83
2022-12-02T05:45:02.057Z,22.50
2022-12-02T05:47:31.426Z,24.53
2022-12-02T05:50:01.070Z,23.00
2022-12-02T05:52:30.293Z,22.70
2022-12-02T05:55:00.210Z,22.17
2022-12-02T05:57:31.074Z,22.93
2022-12-02T06:00:11.737Z,21.57
2022-12-02T06:02:46.210Z,22.40
2022-12-02T06:05:20.464Z,21.60
2022-12-02T06:07:54.322Z,21.20
2022-12-02T06:10:28.391Z,21.83
2022-12-02T06:13:02.134Z,21.53
2022-12-02T06:15:36.410Z,21.10
2022-12-02T06:18:11.474Z,20.50
2022-12-02T06:20:39.650Z,21.73
2022-12-02T06:23:13.054Z,21.03
2022-12-02T06:25:41.006Z,20.33
2022-12-02T06:28:23.744Z,19.63
2022-12-02T06:30:51.713Z,20.17
2022-12-02T06:33:26.952Z,20.17
2022-12-02T06:35:56.896Z,19.90
2022-12-02T06:38:30.657Z,19.10
2022-12-02T06:41:01.717Z,21.37
2022-12-02T06:43:32.812Z,20.77
2022-12-02T06:46:00.687Z,20.43
2022-12-02T06:48:32.500Z,20.43
2022-12-02T06:51:11.895Z,19.57
2022-12-02T06:53:41.445Z,20.57
2022-12-02T06:56:20.414Z,20.33
2022-12-02T06:58:56.482Z,20.67
2022-12-02T07:01:30.276Z,19.33
2022-12-02T07:04:28.229Z,19.30
2022-12-02T07:06:59.322Z,18.87
2022-12-02T07:09:37.809Z,19.67
2022-12-02T07:12:10.324Z,20.23
2022-12-02T07:14:45.465Z,19.03
2022-12-02T07:17:21.558Z,19.27
2022-12-02T07:19:55.176Z,19.17
2022-12-02T07:22:25.574Z,18.27
2022-12-02T07:24:56.328Z,17.90
2022-12-02T07:27:27.259Z,17.87
2022-12-02T07:29:57.237Z,18.30
2022-12-02T07:32:25.267Z,18.00
2022-12-02T07:34:53.352Z,18.40
2022-12-02T07:37:21.561Z,17.33
2022-12-02T07:39:49.399Z,18.87
2022-12-02T07:42:17.284Z,18.27
2022-12-02T07:44:45.197Z,17.53
2022-12-02T07:47:14.370Z,19.17
2022-12-02T07:49:42.282Z,17.37
2022-12-02T07:52:10.194Z,17.87
2022-12-02T07:54:38.086Z,18.50
2022-12-02T07:57:05.947Z,17.70
2022-12-02T07:59:33.841Z,17.63
2022-12-02T08:02:01.797Z,18.17
2022-12-02T08:04:31.091Z,18.50
2022-12-02T08:06:59.093Z,17.80
2022-12-02T08:09:26.934Z,18.20
2022-12-02T08:11:54.813Z,18.33
2022-12-02T08:14:22.724Z,19.43
2022-12-02T08:16:50.605Z,17.07
2022-12-02T08:19:18.526Z,17.37
2022-12-02T08:21:47.654Z,18.57
2022-12-02T08:24:15.554Z,17.70
2022-12-02T08:26:44.817Z,18.23
2022-12-02T08:29:12.803Z,16.93
2022-12-02T08:31:40.665Z,18.30
2022-12-02T08:34:08.766Z,17.23
2022-12-02T08:36:36.629Z,18.77
2022-12-02T08:39:06.425Z,18.40
2022-12-02T08:41:34.695Z,17.17
2022-12-02T08:44:03.075Z,18.97
2022-12-02T08:46:31.665Z,18.50
2022-12-02T08:49:00.267Z,17.23
2022-12-02T08:51:28.136Z,18.17
2022-12-02T08:53:56.030Z,17.47
2022-12-02T08:56:25.286Z,17.37
2022-12-02T08:58:53.150Z,18.27
2022-12-02T09:01:21.374Z,18.20
2022-12-02T09:03:49.444Z,18.70
2022-12-02T09:06:17.412Z,18.60
2022-12-02T09:08:45.328Z,19.10
2022-12-02T09:11:13.343Z,18.10
2022-12-02T09:13:42.562Z,18.23
2022-12-02T09:16:10.591Z,16.53
2022-12-02T09:18:38.449Z,16.57
2022-12-02T09:21:06.664Z,17.27
2022-12-02T09:23:34.572Z,19.23
2022-12-02T09:26:02.665Z,16.87
2022-12-02T09:28:30.537Z,17.03
2022-12-02T09:30:59.776Z,16.93
2022-12-02T09:33:33.556Z,16.50
2022-12-02T09:36:01.736Z,16.20
2022-12-02T09:38:32.008Z,15.30
2022-12-02T09:41:00.277Z,15.60
2022-12-02T09:43:28.986Z,14.57
2022-12-02T09:45:56.948Z,14.13
2022-12-02T09:48:28.056Z,13.93
2022-12-02T09:50:58.850Z,13.63
2022-12-02T09:53:30.763Z,15.50
2022-12-02T09:55:58.622Z,14.70
2022-12-02T09:58:28.159Z,15.13
2022-12-02T10:00:56.158Z,13.97
2022-12-02T10:03:29.020Z,15.07
2022-12-02T10:05:57.470Z,14.13
2022-12-02T10:08:28.562Z,14.93
2022-12-02T10:10:57.656Z,14.20
2022-12-02T10:13:26.085Z,14.90
2022-12-02T10:15:54.663Z,14.07
2022-12-02T10:18:25.779Z,13.17
2022-12-02T10:20:55.060Z,14.03
2022-12-02T10:23:24.441Z,14.97
2022-12-02T10:25:55.580Z,14.97
2022-12-02T10:28:27.373Z,14.23
2022-12-02T10:30:58.425Z,14.93
2022-12-02T10:33:28.979Z,13.77
2022-12-02T10:36:00.456Z,13.73
2022-12-02T10:38:34.477Z,14.30
2022-12-02T10:41:21.149Z,13.27
2022-12-02T10:44:04.529Z,13.70
2022-12-02T10:46:33.657Z,13.37
2022-12-02T10:49:28.899Z,14.97
2022-12-02T10:52:02.755Z,14.33
2022-12-02T10:54:41.155Z,17.70
2022-12-02T10:57:17.367Z,14.57
2022-12-02T10:59:45.295Z,15.53
2022-12-02T11:02:24.592Z,16.47
2022-12-02T11:04:53.379Z,16.83
2022-12-02T11:07:24.853Z,14.63
2022-12-02T11:09:55.290Z,17.00
2022-12-02T11:12:59.846Z,17.13
2022-12-02T11:15:36.256Z,16.83
2022-12-02T11:18:05.480Z,16.30
2022-12-02T11:20:36.780Z,16.43
2022-12-02T11:23:20.425Z,17.37
2022-12-02T11:26:05.758Z,17.17
2022-12-02T11:28:35.634Z,17.73
2022-12-02T11:31:25.224Z,17.93
2022-12-02T11:34:21.494Z,17.23
2022-12-02T11:37:28.341Z,16.50
2022-12-02T11:39:59.478Z,17.77
2022-12-02T11:42:28.901Z,17.47
2022-12-02T11:45:13.956Z,16.90
2022-12-02T11:47:42.524Z,18.57
2022-12-02T11:50:24.716Z,17.53
2022-12-02T11:52:55.542Z,17.23
2022-12-02T11:55:27.914Z,18.53
2022-12-02T11:57:58.206Z,16.30
2022-12-02T12:00:35.714Z,16.97
2022-12-02T12:03:14.564Z,17.57
2022-12-02T12:05:43.857Z,15.93
2022-12-02T12:08:25.329Z,17.77
2022-12-02T12:11:24.516Z,16.87
2022-12-02T12:14:00.826Z,16.80
2022-12-02T12:16:32.415Z,17.47
2022-12-02T12:19:04.668Z,18.33
2022-12-02T12:21:45.353Z,17.43
2022-12-02T12:24:34.378Z,18.10
2022-12-02T12:27:14.062Z,17.00
2022-12-02T12:29:42.769Z,17.20
2022-12-02T12:32:11.969Z,16.50
2022-12-02T12:34:39.877Z,17.37
2022-12-02T12:37:07.756Z,17.87
2022-12-02T12:39:35.605Z,16.77
2022-12-02T12:42:03.488Z,16.83
2022-12-02T12:44:33.301Z,17.60
2022-12-02T12:47:02.731Z,17.00
2022-12-02T12:49:31.220Z,18.20
2022-12-02T12:51:59.416Z,18.80
2022-12-02T12:54:27.316Z,17.53
2022-12-02T12:56:55.147Z,19.27
2022-12-02T12:59:23.064Z,18.50
2022-12-02T13:01:52.412Z,18.70
2022-12-02T13:04:20.406Z,18.13
2022-12-02T13:06:48.603Z,18.33
2022-12-02T13:09:17.133Z,18.33
2022-12-02T13:11:45.227Z,19.23
2022-12-02T13:14:13.155Z,17.50
2022-12-02T13:16:41.168Z,18.73
2022-12-02T13:19:10.417Z,17.57
2022-12-02T13:21:38.352Z,17.73
2022-12-02T13:24:07.018Z,17.97
2022-12-02T13:26:34.866Z,16.83
2022-12-02T13:29:02.707Z,16.33
2022-12-02T13:31:30.628Z,15.83
2022-12-02T13:33:58.539Z,15.37
2022-12-02T13:36:27.727Z,17.13
2022-12-02T13:38:55.914Z,16.60
2022-12-02T13:41:25.553Z,16.93
2022-12-02T13:43:53.365Z,15.53
2022-12-02T13:46:21.211Z,15.97
2022-12-02T13:48:49.169Z,15.77
2022-12-02T13:51:17.033Z,15.30
2022-12-02T13:53:46.273Z,15.20
2022-12-02T13:56:14.150Z,15.47
2022-12-02T13:58:42.117Z,15.83
2022-12-02T14:01:10.186Z,13.67
2022-12-02T14:03:38.145Z,13.83
2022-12-02T14:06:06.313Z,13.73
2022-12-02T14:08:34.149Z,14.73
2022-12-02T14:11:03.331Z,14.53
2022-12-02T14:13:31.140Z,13.40
2022-12-02T14:15:59.089Z,13.23
2022-12-02T14:18:27.021Z,15.57
2022-12-02T14:20:54.978Z,11.47
2022-12-02T14:23:22.865Z,13.93
2022-12-02T14:25:50.768Z,13.97
2022-12-02T14:28:19.909Z,13.87
2022-12-02T14:30:47.838Z,13.30
2022-12-02T14:33:16.090Z,13.57
2022-12-02T14:35:44.247Z,13.60
2022-12-02T14:38:12.083Z,15.03
2022-12-02T14:40:40.209Z,14.87
2022-12-02T14:43:12.870Z,14.40
2022-12-02T14:45:43.659Z,15.03
2022-12-02T14:48:11.734Z,15.23
2022-12-02T14:50:39.637Z,14.13
2022-12-02T14:53:07.560Z,15.40
2022-12-02T14:55:35.989Z,14.10
2022-12-02T14:58:03.870Z,15.30
2022-12-02T15:00:31.877Z,14.50
2022-12-02T15:03:01.102Z,14.90
2022-12-02T15:05:29.050Z,15.20
2022-12-02T15:07:56.966Z,15.63
2022-12-02T15:10:24.830Z,15.43
2022-12-02T15:12:52.648Z,16.10
2022-12-02T15:18:09.672Z,15.77
2022-12-02T15:20:37.553Z,16.20
2022-12-02T15:23:05.560Z,17.60
2022-12-02T15:25:33.447Z,16.37
2022-12-02T15:28:01.350Z,18.33
2022-12-02T15:30:29.187Z,18.87
2022-12-02T15:32:57.132Z,19.37
2022-12-02T15:35:26.441Z,18.67
2022-12-02T15:37:54.295Z,18.97
2022-12-02T15:40:22.217Z,20.20
2022-12-02T15:42:50.106Z,19.87
2022-12-02T15:45:18.164Z,19.77
2022-12-02T15:47:46.040Z,21.73
2022-12-02T15:50:13.924Z,22.17
2022-12-02T15:52:43.171Z,21.47
2022-12-02T15:55:11.733Z,21.77
2022-12-02T15:57:39.662Z,22.07
2022-12-02T16:00:08.602Z,24.37
2022-12-02T16:02:36.497Z,24.30
2022-12-02T16:05:04.575Z,23.30
2022-12-02T16:07:32.569Z,24.80
2022-12-02T16:10:01.865Z,26.20
2022-12-02T16:12:29.752Z,27.10
2022-12-02T16:14:59.173Z,26.53
2022-12-02T16:17:27.406Z,25.63
2022-12-02T16:19:55.281Z,27.97
2022-12-02T16:22:23.173Z,24.40
2022-12-02T16:24:51.259Z,28.60
2022-12-02T16:27:20.630Z,24.93
2022-12-02T16:29:48.501Z,25.90
2022-12-02T16:32:20.308Z,28.13
2022-12-02T16:34:48.925Z,26.60
2022-12-02T16:37:20.156Z,27.07
2022-12-02T16:39:48.278Z,26.17
2022-12-02T16:42:16.123Z,23.93
2022-12-02T16:44:46.763Z,26.60
2022-12-02T16:47:17.274Z,25.27
2022-12-02T16:49:45.130Z,24.37
2022-12-02T16:52:13.005Z,24.57
2022-12-02T16:54:40.972Z,22.60
2022-12-02T16:57:08.822Z,23.20
2022-12-02T16:59:36.705Z,23.83
2022-12-02T17:02:05.989Z,24.93
2022-12-02T17:04:33.951Z,24.07
2022-12-02T17:07:01.793Z,24.73
2022-12-02T17:09:30.741Z,22.23
2022-12-02T17:11:58.669Z,23.63
2022-12-02T17:14:26.645Z,23.20
2022-12-02T17:16:54.618Z,24.00
2022-12-02T17:19:23.841Z,24.37
2022-12-02T17:21:51.744Z,22.27
2022-12-02T17:24:19.567Z,22.23
2022-12-02T17:26:52.679Z,23.43
2022-12-02T17:29:23.390Z,22.70
2022-12-02T17:31:51.305Z,22.30
2022-12-02T17:34:19.249Z,22.70
2022-12-02T17:36:48.441Z,23.27
2022-12-02T17:39:18.067Z,22.23
2022-12-02T17:41:46.129Z,23.00
2022-12-02T17:44:16.819Z,22.53
2022-12-02T17:46:45.521Z,22.27
2022-12-02T17:49:13.644Z,23.20
2022-12-02T17:51:41.470Z,23.27
2022-12-02T17:54:10.649Z,23.57
2022-12-02T17:56:38.569Z,22.97
2022-12-02T17:59:06.441Z,22.33
2022-12-02T18:01:34.388Z,22.60
2022-12-02T18:04:02.315Z,21.73
2022-12-02T18:06:30.150Z,21.43
2022-12-02T18:08:58.019Z,22.33
2022-12-02T18:11:27.243Z,21.93
2022-12-02T18:13:59.268Z,22.70
2022-12-02T18:16:29.920Z,22.53
2022-12-02T18:18:57.821Z,22.60
2022-12-02T18:21:25.684Z,23.10
2022-12-02T18:23:53.521Z,22.33
2022-12-02T18:26:21.345Z,22.87
2022-12-02T18:28:50.564Z,22.60
2022-12-02T18:31:18.448Z,21.63
2022-12-02T18:33:46.322Z,21.63
2022-12-02T18:36:14.324Z,21.93
2022-12-02T18:38:42.171Z,22.27
2022-12-02T18:41:12.562Z,21.97
2022-12-02T18:43:40.397Z,21.57
2022-12-02T18:46:09.645Z,21.17
2022-12-02T18:48:37.593Z,21.10
2022-12-02T18:51:05.650Z,21.30
2022-12-02T18:53:33.506Z,22.37
2022-12-02T18:56:01.325Z,19.73
2022-12-02T18:58:29.241Z,21.20
2022-12-02T19:00:57.146Z,20.90
2022-12-02T19:03:26.421Z,19.87
2022-12-02T19:05:54.329Z,21.73
2022-12-02T19:08:22.234Z,21.23
2022-12-02T19:10:50.085Z,19.73
2022-12-02T19:13:17.941Z,19.67
2022-12-02T19:15:45.854Z,20.67
2022-12-02T19:18:14.276Z,18.73
2022-12-02T19:20:43.397Z,19.93
2022-12-02T19:23:11.265Z,19.63
2022-12-02T19:25:45.812Z,19.67
2022-12-02T19:28:16.241Z,20.07
2022-12-02T19:30:44.691Z,19.07
2022-12-02T19:33:12.594Z,18.00
2022-12-02T19:35:40.509Z,19.97
2022-12-02T19:38:14.912Z,19.43
2022-12-02T19:40:45.426Z,19.10
2022-12-02T19:43:14.372Z,19.97
2022-12-02T19:45:42.853Z,19.00
2022-12-02T19:48:11.275Z,17.77
2022-12-02T19:50:39.159Z,19.53
2022-12-02T19:53:07.139Z,19.30
2022-12-02T19:55:36.384Z,19.87
2022-12-02T19:58:04.334Z,19.57
2022-12-02T20:00:33.309Z,19.90
2022-12-02T20:03:01.262Z,19.53
2022-12-02T20:05:29.230Z,18.10
2022-12-02T20:07:57.325Z,19.80
2022-12-02T20:10:25.281Z,19.43
2022-12-02T20:12:54.437Z,16.53
2022-12-02T20:15:22.256Z,17.17
2022-12-02T20:17:50.183Z,17.73
2022-12-02T20:20:18.101Z,15.83
2022-12-02T20:22:45.985Z,18.57
2022-12-02T20:25:14.200Z,18.30
2022-12-02T20:27:42.005Z,16.67
2022-12-02T20:30:11.730Z,17.40
2022-12-02T20:32:39.564Z,16.40
2022-12-02T20:35:08.046Z,17.13
2022-12-02T20:37:36.059Z,16.97
2022-12-02T20:40:04.320Z,16.57
2022-12-02T20:42:32.362Z,16.47
2022-12-02T20:45:00.289Z,16.57
2022-12-02T20:47:30.889Z,15.60
2022-12-02T20:49:58.699Z,12.83
2022-12-02T20:52:26.586Z,17.03
2022-12-02T20:54:54.800Z,15.97
2022-12-02T20:57:23.008Z,14.90
2022-12-02T20:59:51.464Z,15.73
2022-12-02T21:02:19.398Z,15.97
2022-12-02T21:04:49.298Z,14.43
2022-12-02T21:07:17.481Z,16.57
2022-12-02T21:09:45.400Z,14.43
2022-12-02T21:12:13.341Z,14.23
2022-12-02T21:14:41.218Z,15.73
2022-12-02T21:17:09.221Z,15.30
2022-12-02T21:19:37.082Z,14.43
2022-12-02T21:22:06.317Z,15.43
2022-12-02T21:24:34.155Z,15.43
2022-12-02T21:27:02.031Z,14.57
2022-12-02T21:29:29.949Z,14.77
2022-12-02T21:31:57.869Z,15.03
2022-12-02T21:34:25.708Z,15.60
2022-12-02T21:36:53.671Z,15.00
2022-12-02T21:39:23.195Z,14.40
2022-12-02T21:41:51.079Z,14.43
2022-12-02T21:44:19.068Z,15.93
2022-12-02T21:46:47.428Z,14.63
2022-12-02T21:49:15.367Z,15.60
2022-12-02T21:51:43.216Z,15.17
2022-12-02T21:54:11.028Z,15.33
2022-12-02T21:56:40.254Z,15.03
2022-12-02T21:59:08.103Z,13.57
2022-12-02T22:01:42.864Z,14.87
2022-12-02T22:04:12.609Z,14.90
2022-12-02T22:06:40.538Z,14.83
2022-12-02T22:09:09.216Z,14.97
2022-12-02T22:11:37.666Z,15.03
2022-12-02T22:14:06.853Z,15.20
2022-12-02T22:16:34.795Z,12.67
2022-12-02T22:19:02.665Z,15.97
2022-12-02T22:21:30.486Z,14.43
2022-12-02T22:23:58.377Z,15.03
2022-12-02T22:26:26.209Z,14.47
2022-12-02T22:28:54.053Z,14.43
2022-12-02T22:31:23.390Z,14.37
2022-12-02T22:33:51.294Z,14.50
2022-12-02T22:36:19.223Z,14.87
2022-12-02T22:38:47.141Z,14.97
2022-12-02T22:41:14.966Z,14.03
2022-12-02T22:43:42.806Z,14.97
2022-12-02T22:46:10.796Z,14.23
2022-12-02T22:48:40.130Z,13.13
2022-12-02T22:51:07.990Z,13.50
2022-12-02T22:53:35.945Z,14.10
2022-12-02T22:56:03.871Z,15.17
2022-12-02T22:58:31.751Z,14.37
2022-12-02T23:01:00.350Z,13.57
2022-12-02T23:03:28.335Z,13.63
2022-12-02T23:05:57.576Z,14.17
2022-12-02T23:08:25.433Z,13.20
2022-12-02T23:10:53.330Z,14.20
2022-12-02T23:13:21.250Z,13.90
2022-12-02T23:15:49.140Z,13.37
2022-12-02T23:18:17.047Z,15.47
2022-12-02T23:20:44.882Z,14.00
2022-12-02T23:23:14.058Z,14.30
2022-12-02T23:25:41.935Z,14.00
2022-12-02T23:28:09.852Z,14.40
2022-12-02T23:30:37.765Z,15.30
2022-12-02T23:33:05.740Z,14.40
2022-12-02T23:35:33.626Z,13.37
2022-12-02T23:38:01.442Z,14.63
2022-12-02T23:40:30.678Z,13.93
2022-12-02T23:42:58.585Z,14.63
2022-12-02T23:45:26.482Z,14.67
2022-12-02T23:47:54.344Z,13.73
2022-12-02T23:50:22.286Z,14.87
2022-12-02T23:52:50.175Z,14.13
2022-12-02T23:55:18.228Z,14.43
2022-12-02T23:57:47.442Z,14.07
